createdAt,value
2023-02-06T00:02:35.908Z,100244.81
2023-02-06T00:09:23.756Z,100244.88
2023-02-06T00:12:55.070Z,100249.38
2023-02-06T00:16:18.572Z,100254.34
2023-02-06T00:19:29.537Z,100245.34
2023-02-06T00:23:00.365Z,100251.44
2023-02-06T00:26:15.853Z,100249.47
2023-02-06T00:29:41.750Z,100242.66
2023-02-06T00:36:18.822Z,100248.38
2023-02-06T00:39:30.386Z,100246.13
2023-02-06T00:42:44.045Z,100239.25
2023-02-06T00:46:03.373Z,100237.25
2023-02-06T00:52:44.412Z,100242.84
2023-02-06T00:56:04.216Z,100240.47
2023-02-06T00:59:33.429Z,100242.59
2023-02-06T01:06:54.575Z,100246.47
2023-02-06T01:10:21.655Z,100244.66
2023-02-06T01:13:40.914Z,100247.13
2023-02-06T01:17:15.139Z,100239.38
2023-02-06T01:20:25.429Z,100256.41
2023-02-06T01:23:37.865Z,100259.84
2023-02-06T01:26:50.152Z,100256.72
2023-02-06T01:30:08.039Z,100259.66
2023-02-06T01:33:20.907Z,100257.59
2023-02-06T01:36:39.771Z,100246.34
2023-02-06T01:39:50.685Z,100255.56
2023-02-06T01:43:03.980Z,100253.00
2023-02-06T01:46:25.144Z,100248.03
2023-02-06T01:49:38.228Z,100249.53
2023-02-06T01:52:48.671Z,100240.22
2023-02-06T01:56:05.606Z,100239.63
2023-02-06T01:59:30.444Z,100251.50
2023-02-06T02:03:10.132Z,100253.03
2023-02-06T02:06:55.240Z,100243.38
2023-02-06T02:10:10.025Z,100246.88
2023-02-06T02:13:19.237Z,100249.16
2023-02-06T02:16:36.720Z,100249.38
2023-02-06T02:20:30.045Z,100242.63
2023-02-06T02:23:50.047Z,100240.44
2023-02-06T02:27:51.290Z,100241.31
2023-02-06T02:31:30.611Z,100239.78
2023-02-06T02:35:29.536Z,100248.59
2023-02-06T02:39:30.439Z,100236.22
2023-02-06T02:42:49.308Z,100233.25
2023-02-06T02:46:07.445Z,100225.06
2023-02-06T02:49:24.896Z,100229.50
2023-02-06T02:53:12.557Z,100228.38
2023-02-06T02:56:34.413Z,100222.91
2023-02-06T02:59:50.590Z,100219.59
2023-02-06T03:03:22.307Z,100218.78
2023-02-06T03:07:13.160Z,100220.00
2023-02-06T03:10:33.887Z,100230.13
2023-02-06T03:17:25.619Z,100217.53
2023-02-06T03:20:45.624Z,100217.06
2023-02-06T03:24:03.567Z,100217.31
2023-02-06T03:27:37.363Z,100223.69
2023-02-06T03:30:50.367Z,100216.81
2023-02-06T03:34:17.812Z,100211.22
2023-02-06T03:37:34.065Z,100212.25
2023-02-06T03:40:49.654Z,100216.19
2023-02-06T03:44:06.130Z,100210.41
2023-02-06T03:47:21.425Z,100218.47
2023-02-06T03:50:41.073Z,100228.50
2023-02-06T03:54:04.790Z,100224.31
2023-02-06T03:57:28.949Z,100230.50
2023-02-06T04:00:54.398Z,100236.13
2023-02-06T04:04:05.540Z,100236.94
2023-02-06T04:07:35.602Z,100234.34
2023-02-06T04:10:49.777Z,100241.88
2023-02-06T04:14:11.174Z,100246.72
2023-02-06T04:22:34.450Z,100235.66
2023-02-06T09:24:45.866Z,100256.88
2023-02-06T09:28:51.091Z,100261.53
2023-02-06T09:33:05.434Z,100266.09
2023-02-06T09:36:49.342Z,100261.50
2023-02-06T09:45:21.147Z,100236.56
2023-02-06T09:49:57.375Z,100235.22
2023-02-06T09:53:39.381Z,100231.66
2023-02-06T10:15:07.930Z,100193.44
2023-02-06T10:19:21.811Z,100189.91
2023-02-06T10:27:17.228Z,100188.31
2023-02-06T10:30:39.214Z,100186.56
2023-02-06T10:34:11.709Z,100184.38
2023-02-06T10:37:58.653Z,100176.63
2023-02-06T10:41:29.394Z,100174.41
2023-02-06T10:45:18.641Z,100174.22
2023-02-06T10:48:50.754Z,100180.34
2023-02-06T10:52:05.612Z,100175.97
2023-02-06T10:55:30.160Z,100184.00
2023-02-06T10:58:48.157Z,100181.25
2023-02-06T11:02:14.805Z,100180.88
2023-02-06T11:05:39.791Z,100163.34
2023-02-06T11:08:53.300Z,100169.75
2023-02-06T11:12:04.421Z,100168.72
2023-02-06T11:15:25.550Z,100154.03
2023-02-06T11:18:38.564Z,100160.16
2023-02-06T11:22:06.951Z,100148.38
2023-02-06T11:25:25.807Z,100139.84
2023-02-06T11:28:42.323Z,100140.28
2023-02-06T11:32:05.072Z,100140.50
2023-02-06T11:35:31.940Z,100146.16
2023-02-06T11:38:41.910Z,100134.44
2023-02-06T11:42:54.494Z,100137.63
2023-02-06T11:50:51.088Z,100129.78
2023-02-06T12:01:57.314Z,100125.41
2023-02-06T12:05:11.455Z,100118.59
2023-02-06T12:08:24.463Z,100107.78
2023-02-06T12:11:41.845Z,100110.06
2023-02-06T12:15:18.227Z,100095.94
2023-02-06T12:18:33.430Z,100090.91
2023-02-06T12:21:46.706Z,100091.72
2023-02-06T12:25:00.115Z,100090.41
2023-02-06T12:28:14.719Z,100083.94
2023-02-06T12:31:31.377Z,100080.75
2023-02-06T12:34:54.733Z,100092.69
2023-02-06T12:38:05.983Z,100094.69
2023-02-06T12:41:56.246Z,100090.69
2023-02-06T12:45:21.521Z,100094.44
2023-02-06T12:48:45.635Z,100090.00
2023-02-06T12:51:58.445Z,100077.91
2023-02-06T12:55:20.248Z,100063.28
2023-02-06T12:58:52.454Z,100068.13
2023-02-06T13:02:21.367Z,100069.31
2023-02-06T13:05:40.718Z,100073.88
2023-02-06T13:08:51.892Z,100053.03
2023-02-06T13:12:12.543Z,100058.22
2023-02-06T13:15:26.261Z,100049.81
2023-02-06T13:19:27.188Z,100058.69
2023-02-06T13:22:49.804Z,100050.00
2023-02-06T13:26:03.201Z,100046.53
2023-02-06T13:29:31.278Z,100047.28
2023-02-06T13:32:59.394Z,100055.22
2023-02-06T13:36:46.682Z,100051.56
2023-02-06T13:40:17.558Z,100038.81
2023-02-06T13:43:31.803Z,100040.97
2023-02-06T13:47:18.607Z,100043.72
2023-02-06T13:50:56.107Z,100038.38
2023-02-06T13:54:57.829Z,100033.97
2023-02-06T13:58:31.677Z,100024.53
2023-02-06T14:01:54.972Z,100036.19
2023-02-06T14:05:09.615Z,100048.13
2023-02-06T14:08:42.051Z,100051.94
2023-02-06T14:12:21.344Z,100047.69
2023-02-06T14:15:48.205Z,100046.72
2023-02-06T14:19:08.269Z,100053.19
2023-02-06T14:22:30.900Z,100049.63
2023-02-06T14:26:01.349Z,100055.88
2023-02-06T14:29:26.423Z,100051.88
2023-02-06T14:32:58.732Z,100060.00
2023-02-06T14:36:20.646Z,100049.31
2023-02-06T14:39:48.069Z,100044.84
2023-02-06T14:42:59.004Z,100062.59
2023-02-06T14:46:12.170Z,100057.06
2023-02-06T14:49:27.519Z,100063.19
2023-02-06T14:52:35.198Z,100061.75
2023-02-06T14:55:51.651Z,100051.69
2023-02-06T14:59:00.756Z,100047.38
2023-02-06T15:02:42.258Z,100045.34
2023-02-06T15:05:52.308Z,100047.97
2023-02-06T15:09:05.884Z,100055.47
2023-02-06T15:12:30.195Z,100065.63
2023-02-06T15:15:42.873Z,100054.94
2023-02-06T15:27:49.042Z,100057.03
2023-02-06T15:31:39.777Z,100051.63
2023-02-06T15:35:09.818Z,100046.41
2023-02-06T15:38:27.406Z,100041.75
2023-02-06T15:41:43.236Z,100038.66
2023-02-06T15:44:54.530Z,100042.19
2023-02-06T15:48:20.245Z,100046.41
2023-02-06T15:51:31.835Z,100045.25
2023-02-06T15:54:47.353Z,100043.03
2023-02-06T15:58:00.480Z,100058.66
2023-02-06T16:01:17.065Z,100048.34
2023-02-06T16:04:30.053Z,100051.28
2023-02-06T16:07:40.054Z,100049.63
2023-02-06T16:10:58.036Z,100035.16
2023-02-06T16:14:10.600Z,100048.25
2023-02-06T16:17:34.662Z,100041.16
2023-02-06T16:20:45.150Z,100037.66
2023-02-06T16:24:08.555Z,100028.59
2023-02-06T16:27:40.696Z,100031.16
2023-02-06T16:31:51.957Z,100018.09
2023-02-06T16:35:33.670Z,100020.66
2023-02-06T16:39:35.448Z,100020.66
2023-02-06T16:43:30.248Z,100029.59
2023-02-06T16:46:53.525Z,100036.09
2023-02-06T16:50:41.245Z,100052.38
2023-02-06T16:54:58.314Z,100048.00
2023-02-06T17:03:31.562Z,100058.31
2023-02-06T17:07:30.119Z,100055.31
2023-02-06T17:25:08.571Z,100045.25
2023-02-06T21:41:17.895Z,100007.84
2023-02-06T21:44:50.862Z,100015.25
2023-02-06T21:53:44.892Z,100021.38
2023-02-06T21:57:36.196Z,100007.31
2023-02-06T22:01:48.048Z,100003.19
2023-02-06T22:05:36.544Z,100005.72
2023-02-06T22:45:51.636Z,100005.19
2023-02-06T22:49:47.275Z,99984.44
2023-02-06T23:06:00.733Z,100017.88
2023-02-06T23:34:24.760Z,100018.34
2023-02-06T23:41:39.108Z,100046.50
2023-02-06T23:48:32.792Z,100058.28
2023-02-06T23:51:59.047Z,100056.97
2023-02-06T23:55:24.980Z,100059.13
2023-02-06T23:58:40.147Z,100063.22
